In Rescue
 
Wind Gusting 00 knots
03
July 25, 2021 8:01 AM EDT
Present Weather: Mist
Weather Information
Wind Direction
  090 °
Wind Speed
  03 kt (3 mph)
Wind Gust
  00 kt (0 mph)
Altimeter
29.98 in
Visibility
3 SM
Temperature
23° C
73° F
Dewpoint
23° C
73° F
Humidity
100%
Sky Condition
Broken @ 8,000 ft
MVFR

METAR KIMS 251201Z AUTO 09003KT 3SM BR BKN080 23/23 A2998 RMK AO2

FAA Disclaimer: The data displayed is for advisory purposes only and is not to be used for flight planning or operations.